Terminal Aerodrome Forecast
Issued by NWS

Current Version | Previous Version | Text Only | Print | Product List | Glossary On
Versions: 1 2 3 4 5 6 7 8 9 10 11 12 13 14 15 16 17 18 19 20 21 22 23 24 25 26
000
FTUS45 KBYZ 012332
TAFLVM
TAF
KLVM 012332Z 0200/0224 28013G20KT P6SM FEW120
     FM020100 27007KT P6SM SKC
     FM022100 08009KT P6SM FEW100=

USA.gov is the U.S. government's official web portal to all federal, state and local government web resources and services.